createdAt,value
2023-03-30T00:00:25.055Z,66.30
2023-03-30T00:01:27.085Z,66.53
2023-03-30T00:02:29.194Z,66.57
2023-03-30T00:03:31.470Z,66.43
2023-03-30T00:04:33.908Z,66.55
2023-03-30T00:05:36.269Z,66.65
2023-03-30T00:06:38.422Z,66.63
2023-03-30T00:07:41.961Z,66.63
2023-03-30T00:08:44.649Z,66.76
2023-03-30T00:09:46.975Z,67.04
2023-03-30T00:10:49.008Z,66.78
2023-03-30T00:11:51.022Z,66.64
2023-03-30T00:12:53.587Z,66.61
2023-03-30T00:13:55.770Z,66.60
2023-03-30T00:14:57.820Z,66.71
2023-03-30T00:16:00.463Z,66.65
2023-03-30T00:17:06.305Z,66.56
2023-03-30T00:18:08.541Z,66.52
2023-03-30T00:19:10.708Z,66.79
2023-03-30T00:20:14.539Z,66.83
2023-03-30T00:21:17.371Z,66.87
2023-03-30T00:22:19.731Z,66.79
2023-03-30T00:23:21.977Z,67.00
2023-03-30T00:24:24.404Z,66.96
2023-03-30T00:25:26.620Z,66.85
2023-03-30T00:26:29.342Z,66.92
2023-03-30T00:27:31.487Z,66.93
2023-03-30T00:28:33.867Z,66.83
2023-03-30T00:29:36.073Z,66.80
2023-03-30T00:30:38.283Z,66.86
2023-03-30T00:31:41.691Z,66.98
2023-03-30T00:32:45.366Z,67.03
2023-03-30T00:33:47.974Z,67.05
2023-03-30T00:34:50.097Z,67.16
2023-03-30T00:35:57.443Z,67.14
2023-03-30T00:36:59.703Z,67.11
2023-03-30T00:38:01.817Z,67.18
2023-03-30T00:39:05.078Z,67.15
2023-03-30T00:40:11.696Z,67.23
2023-03-30T00:41:15.015Z,67.41
2023-03-30T00:42:17.656Z,67.49
2023-03-30T00:43:21.550Z,67.43
2023-03-30T00:45:01.504Z,67.39
2023-03-30T00:46:04.279Z,67.40
2023-03-30T00:47:06.640Z,67.36
2023-03-30T00:48:21.725Z,67.45
2023-03-30T00:49:25.140Z,67.38
2023-03-30T00:50:31.372Z,67.51
2023-03-30T00:51:37.129Z,67.58
2023-03-30T00:52:41.146Z,67.69
2023-03-30T00:53:47.265Z,67.53
2023-03-30T00:54:51.971Z,67.62
2023-03-30T00:55:56.405Z,67.57
2023-03-30T00:56:58.814Z,67.52
2023-03-30T00:58:01.431Z,67.73
2023-03-30T00:59:04.137Z,67.76
2023-03-30T01:00:08.319Z,67.68
2023-03-30T01:01:14.449Z,67.69
2023-03-30T01:02:16.812Z,67.74
2023-03-30T01:03:26.085Z,67.78
2023-03-30T01:04:28.238Z,67.83
2023-03-30T01:05:30.912Z,67.81
2023-03-30T01:06:35.887Z,67.80
2023-03-30T01:07:40.298Z,67.61
2023-03-30T01:08:42.699Z,67.71
2023-03-30T01:09:45.923Z,67.78
2023-03-30T01:10:48.201Z,67.69
2023-03-30T01:11:50.454Z,67.92
2023-03-30T01:12:53.022Z,67.82
2023-03-30T01:14:01.839Z,67.85
2023-03-30T01:15:06.741Z,67.92
2023-03-30T01:16:29.497Z,67.90
2023-03-30T01:17:47.110Z,67.79
2023-03-30T01:19:02.083Z,67.72
2023-03-30T01:20:14.819Z,67.64
2023-03-30T01:21:29.980Z,67.78
2023-03-30T01:22:44.838Z,67.87
2023-03-30T01:24:02.859Z,67.68
2023-03-30T01:25:31.258Z,67.71
2023-03-30T01:26:49.314Z,67.75
2023-03-30T01:28:10.181Z,67.74
2023-03-30T01:29:18.857Z,67.73
2023-03-30T01:31:51.229Z,67.88
2023-03-30T01:33:05.889Z,68.05
2023-03-30T01:34:19.833Z,68.14
2023-03-30T01:35:43.292Z,67.92
2023-03-30T01:37:09.991Z,67.90
2023-03-30T01:38:15.964Z,68.08
2023-03-30T01:39:39.938Z,67.96
2023-03-30T01:41:07.397Z,67.87
2023-03-30T01:43:37.415Z,67.86
2023-03-30T01:44:46.362Z,67.96
2023-03-30T01:45:55.381Z,68.15
2023-03-30T01:47:19.491Z,68.04
2023-03-30T01:48:25.712Z,68.10
2023-03-30T01:49:40.364Z,68.01
2023-03-30T01:50:52.677Z,67.93
2023-03-30T01:54:40.656Z,68.05
2023-03-30T01:56:09.224Z,68.21
2023-03-30T01:57:18.077Z,68.37
2023-03-30T01:59:58.839Z,68.04
2023-03-30T02:01:03.637Z,68.01
2023-03-30T02:02:09.401Z,68.07
2023-03-30T02:03:19.107Z,68.07
2023-03-30T02:04:24.283Z,68.25
2023-03-30T02:05:29.720Z,68.11
2023-03-30T02:07:50.139Z,68.23
2023-03-30T02:08:55.474Z,68.25
2023-03-30T02:10:04.573Z,68.45
2023-03-30T02:11:08.701Z,68.36
2023-03-30T02:12:13.227Z,68.26
2023-03-30T02:13:18.803Z,68.27
2023-03-30T02:14:26.170Z,68.17
2023-03-30T02:15:35.145Z,68.09
2023-03-30T02:16:41.228Z,68.05
2023-03-30T02:17:44.048Z,68.10
2023-03-30T02:18:46.297Z,68.19
2023-03-30T02:19:50.181Z,68.13
2023-03-30T02:20:52.930Z,67.96
2023-03-30T02:21:55.714Z,67.89
2023-03-30T02:23:00.739Z,68.09
2023-03-30T02:24:06.578Z,67.97
2023-03-30T02:25:09.571Z,67.91
2023-03-30T02:26:13.570Z,67.84
2023-03-30T02:27:16.729Z,67.71
2023-03-30T02:28:18.973Z,67.84
2023-03-30T02:29:21.893Z,67.68
2023-03-30T02:30:24.221Z,67.64
2023-03-30T02:31:26.408Z,67.81
2023-03-30T02:32:35.150Z,67.81
2023-03-30T02:33:53.114Z,67.84
2023-03-30T02:35:11.497Z,67.69
2023-03-30T02:36:45.155Z,67.80
2023-03-30T02:38:08.295Z,67.84
2023-03-30T02:39:14.727Z,67.80
2023-03-30T02:40:32.865Z,67.86
2023-03-30T02:41:41.763Z,67.96
2023-03-30T02:44:20.782Z,67.92
2023-03-30T02:45:26.711Z,67.96
2023-03-30T02:46:33.165Z,68.01
2023-03-30T02:47:56.171Z,67.93
2023-03-30T02:49:14.480Z,68.08
2023-03-30T02:51:52.823Z,68.09
2023-03-30T02:53:00.506Z,68.21
2023-03-30T02:55:23.199Z,68.01
2023-03-30T02:56:41.351Z,68.02
2023-03-30T02:57:59.402Z,68.08
2023-03-30T02:59:24.213Z,67.89
2023-03-30T03:00:30.673Z,67.85
2023-03-30T03:02:51.649Z,67.86
2023-03-30T03:03:58.155Z,68.17
2023-03-30T03:05:01.349Z,68.46
2023-03-30T03:06:06.533Z,68.25
2023-03-30T03:07:12.136Z,68.44
2023-03-30T03:08:18.477Z,68.47
2023-03-30T03:09:22.292Z,68.34
2023-03-30T03:10:25.142Z,68.28
2023-03-30T03:11:27.521Z,68.26
2023-03-30T03:12:29.692Z,68.36
2023-03-30T03:13:32.073Z,68.34
2023-03-30T03:14:35.932Z,68.40
2023-03-30T03:15:38.277Z,68.35
2023-03-30T03:16:42.784Z,68.30
2023-03-30T03:17:46.812Z,68.40
2023-03-30T03:18:50.309Z,68.30
2023-03-30T03:19:53.328Z,68.20
2023-03-30T03:20:56.295Z,68.15
2023-03-30T03:21:58.838Z,68.13
2023-03-30T03:23:01.334Z,68.20
2023-03-30T03:24:04.860Z,68.24
2023-03-30T03:26:18.231Z,68.39
2023-03-30T03:27:20.723Z,68.37
2023-03-30T03:28:30.663Z,68.27
2023-03-30T03:29:34.839Z,68.22
2023-03-30T03:30:37.172Z,68.25
2023-03-30T03:31:44.424Z,68.12
2023-03-30T03:32:46.639Z,68.04
2023-03-30T03:33:48.887Z,68.08
2023-03-30T03:34:55.799Z,68.01
2023-03-30T03:35:59.899Z,67.98
2023-03-30T03:37:02.510Z,67.94
2023-03-30T03:38:06.860Z,67.99
2023-03-30T03:39:09.623Z,67.99
2023-03-30T03:40:14.193Z,68.03
2023-03-30T03:41:16.510Z,68.04
2023-03-30T03:42:19.379Z,68.10
2023-03-30T03:43:26.414Z,68.04
2023-03-30T03:44:28.741Z,67.75
2023-03-30T03:45:32.086Z,67.63
2023-03-30T03:46:35.705Z,67.69
2023-03-30T03:47:38.009Z,67.65
2023-03-30T03:48:40.042Z,67.69
2023-03-30T03:49:42.544Z,67.62
2023-03-30T03:50:47.101Z,67.62
2023-03-30T03:51:50.474Z,67.58
2023-03-30T03:52:53.226Z,67.55
2023-03-30T03:53:55.375Z,67.67
2023-03-30T03:54:57.491Z,67.93
2023-03-30T03:56:00.146Z,67.81
2023-03-30T03:57:02.675Z,68.02
2023-03-30T03:58:05.704Z,68.08
2023-03-30T03:59:08.094Z,67.94
2023-03-30T04:00:11.602Z,67.83
2023-03-30T04:01:14.623Z,67.91
2023-03-30T04:02:17.390Z,67.81
2023-03-30T04:03:19.731Z,67.82
2023-03-30T04:04:22.499Z,67.96
2023-03-30T04:05:25.565Z,68.10
2023-03-30T04:06:27.887Z,68.08
2023-03-30T04:07:30.098Z,68.11
2023-03-30T04:08:32.662Z,68.07
2023-03-30T04:09:42.398Z,67.97
2023-03-30T04:10:52.388Z,68.12
2023-03-30T04:11:56.465Z,68.06
2023-03-30T04:14:18.674Z,67.82
2023-03-30T04:15:25.739Z,67.86
2023-03-30T04:16:44.777Z,67.77
2023-03-30T04:17:49.137Z,67.72
2023-03-30T04:18:56.074Z,67.78
2023-03-30T04:20:09.312Z,67.65
2023-03-30T04:21:19.134Z,67.53
2023-03-30T04:22:29.227Z,67.64
2023-03-30T04:23:37.137Z,67.78
2023-03-30T04:26:01.337Z,68.02
2023-03-30T04:27:14.476Z,68.11
2023-03-30T04:28:28.754Z,68.16
2023-03-30T04:30:59.337Z,68.07
2023-03-30T04:32:19.931Z,67.97
2023-03-30T04:33:24.835Z,67.95
2023-03-30T04:34:46.863Z,68.05
2023-03-30T04:35:56.103Z,68.33
2023-03-30T04:38:14.764Z,67.89
2023-03-30T04:39:22.305Z,68.01
2023-03-30T04:40:27.546Z,68.10
2023-03-30T04:42:59.813Z,67.98
2023-03-30T04:44:22.638Z,67.77
2023-03-30T04:45:49.036Z,67.67
2023-03-30T04:46:53.122Z,67.61
2023-03-30T04:48:14.404Z,67.65
2023-03-30T04:50:30.185Z,67.63
2023-03-30T04:51:51.146Z,67.84
2023-03-30T04:54:10.810Z,67.79
2023-03-30T04:55:17.960Z,67.74
2023-03-30T04:57:37.230Z,67.88
2023-03-30T04:58:44.185Z,67.86
2023-03-30T05:00:00.810Z,67.89
2023-03-30T05:01:12.123Z,67.64
2023-03-30T05:02:33.077Z,67.60
2023-03-30T05:05:02.618Z,67.31
2023-03-30T05:06:08.070Z,67.15
2023-03-30T05:07:29.348Z,67.08
2023-03-30T05:08:41.734Z,67.23
2023-03-30T05:10:02.733Z,67.02
2023-03-30T05:11:09.771Z,66.95
2023-03-30T05:12:22.839Z,66.74
2023-03-30T05:13:30.096Z,66.81
2023-03-30T05:14:51.088Z,66.68
2023-03-30T05:16:05.141Z,66.58
2023-03-30T05:17:12.906Z,66.66
2023-03-30T05:18:32.354Z,66.60
2023-03-30T05:20:51.043Z,66.27
2023-03-30T05:22:14.731Z,66.21
2023-03-30T05:23:22.388Z,66.31
2023-03-30T05:24:26.494Z,66.50
2023-03-30T05:25:30.561Z,66.12
2023-03-30T05:27:46.899Z,66.11
2023-03-30T05:28:57.016Z,65.98
2023-03-30T05:30:13.633Z,65.68
2023-03-30T05:31:18.331Z,65.64
2023-03-30T05:32:31.287Z,65.70
2023-03-30T05:33:44.662Z,65.64
2023-03-30T05:34:55.041Z,65.66
2023-03-30T05:36:09.739Z,65.46
2023-03-30T05:37:14.298Z,65.37
2023-03-30T05:38:20.521Z,65.32
2023-03-30T05:39:24.656Z,65.56
2023-03-30T05:40:29.594Z,65.44
2023-03-30T05:42:57.892Z,64.92
2023-03-30T05:45:17.848Z,64.41
2023-03-30T05:47:30.769Z,64.32
2023-03-30T05:48:40.918Z,64.33
2023-03-30T05:49:55.181Z,64.37
2023-03-30T05:51:02.649Z,63.92
2023-03-30T05:52:09.890Z,64.05
2023-03-30T05:53:30.998Z,63.75
2023-03-30T05:54:34.888Z,63.51
2023-03-30T05:55:55.638Z,63.55
2023-03-30T05:58:15.506Z,63.29
2023-03-30T05:59:22.175Z,63.40
2023-03-30T06:00:29.567Z,62.88
2023-03-30T06:01:33.796Z,63.10
2023-03-30T06:02:36.128Z,63.00
2023-03-30T06:03:40.496Z,62.95
2023-03-30T06:04:44.646Z,63.17
2023-03-30T06:05:47.625Z,63.18
2023-03-30T06:06:49.684Z,63.18
2023-03-30T06:07:51.982Z,62.91
2023-03-30T06:08:55.240Z,62.74
2023-03-30T06:09:59.261Z,62.76
2023-03-30T06:11:04.522Z,63.26
2023-03-30T06:12:08.866Z,63.11
2023-03-30T06:13:11.480Z,63.42
2023-03-30T06:14:21.805Z,63.33
2023-03-30T06:15:32.213Z,63.08
2023-03-30T06:16:39.090Z,62.93
2023-03-30T06:17:42.087Z,62.35
2023-03-30T06:18:44.371Z,62.15
2023-03-30T06:19:48.522Z,62.39
2023-03-30T06:20:51.408Z,62.00
2023-03-30T06:21:54.071Z,61.62
2023-03-30T06:23:05.077Z,61.36
2023-03-30T06:24:07.385Z,61.19
2023-03-30T06:25:10.609Z,61.06
2023-03-30T06:26:15.587Z,60.68
2023-03-30T06:27:18.157Z,61.10
2023-03-30T06:28:21.602Z,61.09
2023-03-30T06:29:23.795Z,60.33
2023-03-30T06:30:26.145Z,60.45
2023-03-30T06:31:30.217Z,59.95
2023-03-30T06:33:43.087Z,60.10
2023-03-30T06:34:45.701Z,59.27
2023-03-30T06:35:50.391Z,59.37
2023-03-30T06:36:54.077Z,59.71
2023-03-30T06:37:59.125Z,59.59
2023-03-30T06:39:04.010Z,59.32
2023-03-30T06:40:08.258Z,59.48
2023-03-30T06:41:10.667Z,59.55
2023-03-30T06:42:14.684Z,58.90
2023-03-30T06:44:33.786Z,58.71
2023-03-30T06:45:38.074Z,58.19
2023-03-30T06:46:41.116Z,58.93
2023-03-30T06:47:44.787Z,58.66
2023-03-30T06:48:48.556Z,58.79
2023-03-30T06:50:09.913Z,57.87
2023-03-30T06:51:14.965Z,58.20
2023-03-30T06:52:19.077Z,57.99
2023-03-30T06:53:23.327Z,58.32
2023-03-30T06:54:26.325Z,58.50
2023-03-30T06:55:30.292Z,58.33
2023-03-30T06:56:32.607Z,58.42
2023-03-30T06:57:37.790Z,57.81
2023-03-30T06:58:40.180Z,58.93
2023-03-30T06:59:42.237Z,58.55
2023-03-30T07:00:55.323Z,57.65
2023-03-30T07:03:25.788Z,58.07
2023-03-30T07:04:31.680Z,58.75
2023-03-30T07:05:48.664Z,57.60
2023-03-30T07:07:01.475Z,57.59
2023-03-30T07:08:06.951Z,57.32
2023-03-30T07:09:09.961Z,57.23
2023-03-30T07:10:13.211Z,57.35
2023-03-30T07:11:15.510Z,57.49
2023-03-30T07:12:18.925Z,57.29
2023-03-30T07:13:21.803Z,57.22
2023-03-30T07:14:24.736Z,57.00
2023-03-30T07:15:27.524Z,56.27
2023-03-30T07:16:29.729Z,55.34
2023-03-30T07:17:32.426Z,55.88
2023-03-30T07:18:34.801Z,55.75
2023-03-30T07:19:38.104Z,55.80
2023-03-30T07:20:40.403Z,55.60
2023-03-30T07:21:53.348Z,54.66
2023-03-30T07:22:57.533Z,54.83
2023-03-30T07:24:00.615Z,54.89
2023-03-30T07:25:05.658Z,55.06
2023-03-30T07:26:09.576Z,54.44
2023-03-30T07:27:29.005Z,54.92
2023-03-30T07:28:32.720Z,54.61
2023-03-30T07:29:35.592Z,54.77
2023-03-30T07:30:37.952Z,55.09
2023-03-30T07:31:41.900Z,55.13
2023-03-30T07:32:45.563Z,55.46
2023-03-30T07:33:49.544Z,56.20
2023-03-30T07:34:53.364Z,55.57
2023-03-30T07:35:56.071Z,55.13
2023-03-30T07:36:59.159Z,54.76
2023-03-30T07:38:03.981Z,54.79
2023-03-30T07:39:11.362Z,54.41
2023-03-30T07:40:16.892Z,54.83
2023-03-30T07:41:19.245Z,54.57
2023-03-30T07:42:24.503Z,54.81
2023-03-30T07:43:27.176Z,54.64
2023-03-30T07:44:31.552Z,54.51
2023-03-30T07:45:35.709Z,54.45
2023-03-30T07:46:38.271Z,54.63
2023-03-30T07:47:41.785Z,55.06
2023-03-30T07:48:45.174Z,54.26
2023-03-30T07:49:47.340Z,54.34
2023-03-30T07:50:49.538Z,54.10
2023-03-30T07:51:53.312Z,54.09
2023-03-30T07:52:57.378Z,53.84
2023-03-30T07:54:00.191Z,53.69
2023-03-30T07:56:16.708Z,53.32
2023-03-30T07:57:21.404Z,53.06
2023-03-30T07:58:23.991Z,53.40
2023-03-30T07:59:26.275Z,53.57
2023-03-30T08:00:30.282Z,53.59
2023-03-30T08:01:37.505Z,53.11
2023-03-30T08:02:44.178Z,52.48
2023-03-30T08:03:48.598Z,52.69
2023-03-30T08:04:51.948Z,52.96
2023-03-30T08:05:58.898Z,53.53
2023-03-30T08:07:03.225Z,53.25
2023-03-30T08:08:05.813Z,52.55
2023-03-30T08:09:09.753Z,53.51
2023-03-30T08:10:13.096Z,54.16
2023-03-30T08:11:15.208Z,53.04
2023-03-30T08:12:17.552Z,52.40
2023-03-30T08:13:22.059Z,52.64
2023-03-30T08:14:25.878Z,52.48
2023-03-30T08:15:27.985Z,51.64
2023-03-30T08:16:31.265Z,52.51
2023-03-30T08:17:33.496Z,52.47
2023-03-30T08:18:35.975Z,52.76
2023-03-30T08:19:38.112Z,52.79
2023-03-30T08:20:41.976Z,52.86
2023-03-30T08:21:44.129Z,52.01
2023-03-30T08:22:47.419Z,52.15
2023-03-30T08:23:49.411Z,52.86
2023-03-30T08:24:51.418Z,52.82
2023-03-30T08:25:59.226Z,52.19
2023-03-30T08:27:02.613Z,52.70
2023-03-30T08:28:04.927Z,52.12
2023-03-30T08:29:09.423Z,52.22
2023-03-30T08:30:13.082Z,51.45
2023-03-30T08:31:15.321Z,52.46
2023-03-30T08:32:18.384Z,52.24
2023-03-30T08:33:21.124Z,52.32
2023-03-30T08:34:23.886Z,52.39
2023-03-30T08:35:26.237Z,52.52
2023-03-30T08:36:28.703Z,53.72
2023-03-30T08:37:31.424Z,53.01
2023-03-30T08:38:33.504Z,52.72
2023-03-30T08:39:35.510Z,51.97
2023-03-30T08:40:42.806Z,51.39
2023-03-30T08:42:04.288Z,51.65
2023-03-30T08:43:21.568Z,51.64
2023-03-30T08:44:42.289Z,50.76
2023-03-30T08:45:44.820Z,49.92
2023-03-30T08:46:48.460Z,49.97
2023-03-30T08:47:52.212Z,50.54
2023-03-30T08:48:57.733Z,50.61
2023-03-30T08:51:38.969Z,51.14
2023-03-30T08:52:42.323Z,50.84
2023-03-30T08:53:44.821Z,50.87
2023-03-30T08:54:47.010Z,51.13
2023-03-30T08:56:07.650Z,50.66
2023-03-30T08:57:13.892Z,49.58
2023-03-30T08:58:41.645Z,50.12
2023-03-30T08:59:53.722Z,50.66
2023-03-30T09:01:18.179Z,51.42
2023-03-30T09:02:30.428Z,50.74
2023-03-30T09:04:06.646Z,50.75
2023-03-30T09:05:21.491Z,50.51
2023-03-30T09:06:35.914Z,50.68
2023-03-30T09:07:59.919Z,52.27
2023-03-30T09:09:02.136Z,51.54
2023-03-30T09:11:32.249Z,52.53
2023-03-30T09:12:44.453Z,51.12
2023-03-30T09:13:49.637Z,52.98
2023-03-30T09:15:11.950Z,52.39
2023-03-30T09:16:24.480Z,52.57
2023-03-30T09:17:39.418Z,51.98
2023-03-30T09:18:44.313Z,52.05
2023-03-30T09:20:13.502Z,51.61
2023-03-30T09:21:17.788Z,52.14
2023-03-30T09:22:20.718Z,53.13
2023-03-30T09:23:23.270Z,50.44
2023-03-30T09:24:26.477Z,51.29
2023-03-30T09:25:49.273Z,50.44
2023-03-30T09:27:02.190Z,49.99
2023-03-30T09:28:14.203Z,50.52
2023-03-30T09:29:34.699Z,50.34
2023-03-30T09:30:40.527Z,50.25
2023-03-30T09:31:52.383Z,50.40
2023-03-30T09:33:01.138Z,52.27
2023-03-30T09:34:08.676Z,51.19
2023-03-30T09:35:20.277Z,49.44
2023-03-30T09:36:33.033Z,47.83
2023-03-30T09:37:36.911Z,48.85
2023-03-30T09:38:39.971Z,49.40
2023-03-30T09:39:41.966Z,49.54
2023-03-30T09:41:03.351Z,49.39
2023-03-30T09:42:18.404Z,49.38
2023-03-30T09:43:42.217Z,47.88
2023-03-30T09:46:07.347Z,49.06
2023-03-30T09:47:19.954Z,48.08
2023-03-30T09:48:23.714Z,47.89
2023-03-30T09:49:31.545Z,49.02
2023-03-30T09:50:43.773Z,49.04
2023-03-30T09:52:01.961Z,49.71
2023-03-30T09:53:19.778Z,47.34
2023-03-30T09:54:22.491Z,49.52
2023-03-30T09:55:34.970Z,49.14
2023-03-30T09:57:52.874Z,48.66
2023-03-30T09:58:55.520Z,47.19
2023-03-30T09:59:59.886Z,47.63
2023-03-30T10:02:24.916Z,48.01
2023-03-30T10:03:28.139Z,47.21
2023-03-30T10:04:30.447Z,47.45
2023-03-30T10:05:36.210Z,47.58
2023-03-30T10:06:47.073Z,47.52
2023-03-30T10:07:55.206Z,48.70
2023-03-30T10:08:57.867Z,46.97
2023-03-30T10:10:03.422Z,47.14
2023-03-30T10:11:05.647Z,47.04
2023-03-30T10:12:11.365Z,46.71
2023-03-30T10:13:17.445Z,46.82
2023-03-30T10:14:29.952Z,47.89
2023-03-30T10:15:34.468Z,47.36
2023-03-30T10:16:37.616Z,45.71
2023-03-30T10:17:40.752Z,46.73
2023-03-30T10:18:46.761Z,46.88
2023-03-30T10:21:07.967Z,46.56
2023-03-30T10:22:16.432Z,46.18
2023-03-30T10:23:20.534Z,48.52
2023-03-30T10:24:28.367Z,46.18
2023-03-30T10:25:33.953Z,45.98
2023-03-30T10:26:37.385Z,44.96
2023-03-30T10:27:41.884Z,45.48
2023-03-30T10:29:02.602Z,45.49
2023-03-30T10:30:11.458Z,47.77
2023-03-30T10:31:15.930Z,46.07
2023-03-30T10:32:21.025Z,44.96
2023-03-30T10:33:24.069Z,46.92
2023-03-30T10:34:36.871Z,46.90
2023-03-30T10:35:39.833Z,46.00
2023-03-30T10:36:42.416Z,45.75
2023-03-30T10:37:46.290Z,45.29
2023-03-30T10:38:49.236Z,43.95
2023-03-30T10:39:52.953Z,42.79
2023-03-30T10:40:58.857Z,44.94
2023-03-30T10:42:04.003Z,45.11
2023-03-30T10:43:09.743Z,46.27
2023-03-30T10:45:50.830Z,45.65
2023-03-30T10:48:42.391Z,46.55
2023-03-30T10:50:09.448Z,44.44
2023-03-30T10:52:58.394Z,45.06
2023-03-30T10:54:34.144Z,44.88
2023-03-30T10:55:49.491Z,43.91
2023-03-30T10:56:54.742Z,44.63
2023-03-30T10:58:21.676Z,45.01
2023-03-30T10:59:33.705Z,44.74
2023-03-30T11:01:02.158Z,43.57
2023-03-30T11:02:26.876Z,43.96
2023-03-30T11:03:30.558Z,45.77
2023-03-30T11:04:44.952Z,42.91
2023-03-30T11:05:51.703Z,42.10
2023-03-30T11:06:57.308Z,42.39
2023-03-30T11:08:05.806Z,43.11
2023-03-30T11:09:11.682Z,42.55
2023-03-30T11:10:18.910Z,44.68
2023-03-30T11:11:25.347Z,44.23
2023-03-30T11:12:31.087Z,43.69
2023-03-30T11:13:48.928Z,42.93
2023-03-30T11:14:54.700Z,43.90
2023-03-30T11:16:03.855Z,42.83
2023-03-30T11:17:11.032Z,43.06
2023-03-30T11:18:23.544Z,44.37
2023-03-30T11:19:34.829Z,42.29
2023-03-30T11:20:43.306Z,42.93
2023-03-30T11:21:54.784Z,42.08
2023-03-30T11:23:13.064Z,41.97
2023-03-30T11:24:21.217Z,42.66
2023-03-30T11:25:26.970Z,43.45
2023-03-30T11:26:35.942Z,42.28
2023-03-30T11:27:42.137Z,42.82
2023-03-30T11:29:10.728Z,43.77
2023-03-30T11:30:20.307Z,43.38
2023-03-30T11:33:11.326Z,44.65
2023-03-30T11:34:17.272Z,41.44
2023-03-30T11:35:38.213Z,41.42
2023-03-30T11:36:56.358Z,42.94
2023-03-30T11:38:18.852Z,42.74
2023-03-30T11:39:31.616Z,43.84
2023-03-30T11:40:35.953Z,43.11
2023-03-30T11:43:01.161Z,43.10
2023-03-30T11:44:04.262Z,41.46
2023-03-30T11:46:57.592Z,42.59
2023-03-30T11:49:39.337Z,40.61
2023-03-30T11:52:15.445Z,42.35
2023-03-30T11:53:39.496Z,42.75
2023-03-30T11:55:03.000Z,42.44
2023-03-30T11:57:23.929Z,41.71
2023-03-30T11:58:42.704Z,41.60
2023-03-30T11:59:54.520Z,42.11
2023-03-30T12:02:47.931Z,42.07
2023-03-30T12:05:14.656Z,40.15
2023-03-30T12:06:32.166Z,40.36
2023-03-30T12:07:50.300Z,41.78
2023-03-30T12:11:47.262Z,41.44
2023-03-30T12:12:50.173Z,40.49
2023-03-30T12:13:54.088Z,39.45
2023-03-30T12:15:21.524Z,39.63
2023-03-30T12:17:50.785Z,40.16
2023-03-30T12:19:10.490Z,38.93
2023-03-30T12:20:38.326Z,39.26
2023-03-30T12:21:44.097Z,39.54
2023-03-30T12:23:01.939Z,39.20
2023-03-30T12:24:20.281Z,38.80
2023-03-30T12:25:32.320Z,40.32
2023-03-30T12:26:35.295Z,40.10
2023-03-30T12:27:41.054Z,40.58
2023-03-30T12:29:06.603Z,40.32
2023-03-30T12:31:00.164Z,38.30
2023-03-30T12:32:05.572Z,39.67
2023-03-30T12:33:17.087Z,39.74
2023-03-30T12:34:21.782Z,40.62
2023-03-30T12:35:50.745Z,39.57
2023-03-30T12:36:57.020Z,37.93
2023-03-30T12:38:00.093Z,38.91
2023-03-30T12:39:04.613Z,38.49
2023-03-30T12:40:20.784Z,39.64
2023-03-30T12:41:26.181Z,39.29
2023-03-30T12:42:31.211Z,40.16
2023-03-30T12:43:54.002Z,39.71
2023-03-30T12:45:15.631Z,39.02
2023-03-30T12:46:42.489Z,39.24
2023-03-30T12:48:00.299Z,39.38
2023-03-30T12:49:31.380Z,39.03
2023-03-30T12:50:51.955Z,39.46
2023-03-30T12:52:15.992Z,39.45
2023-03-30T12:53:40.638Z,39.77
2023-03-30T12:54:59.240Z,38.78
2023-03-30T12:57:40.368Z,38.99
2023-03-30T12:59:18.738Z,38.06
2023-03-30T13:00:37.277Z,38.73
2023-03-30T13:01:48.847Z,37.16
2023-03-30T13:03:20.716Z,38.48
2023-03-30T13:04:26.071Z,38.34
2023-03-30T13:05:31.978Z,41.16
2023-03-30T13:07:46.030Z,40.79
2023-03-30T13:08:51.942Z,39.20
2023-03-30T13:11:20.185Z,39.47
2023-03-30T13:12:26.629Z,38.69
2023-03-30T13:13:53.634Z,38.61
2023-03-30T13:15:05.815Z,38.09
2023-03-30T13:16:10.306Z,39.70
2023-03-30T13:17:17.875Z,40.08
2023-03-30T13:18:33.515Z,38.33
2023-03-30T13:19:39.280Z,38.09
2023-03-30T13:20:56.889Z,37.90
2023-03-30T13:23:27.199Z,40.27
2023-03-30T13:24:54.404Z,38.27
2023-03-30T13:26:06.466Z,39.02
2023-03-30T13:27:21.638Z,39.09
2023-03-30T13:28:56.638Z,39.15
2023-03-30T13:30:05.232Z,39.18
2023-03-30T13:31:27.872Z,38.26
2023-03-30T13:32:48.820Z,38.50
2023-03-30T13:35:23.677Z,39.43
2023-03-30T13:36:29.649Z,37.86
2023-03-30T13:37:41.916Z,37.99
2023-03-30T13:39:13.236Z,38.39
2023-03-30T13:40:41.515Z,38.78
2023-03-30T13:42:02.141Z,39.19
2023-03-30T13:43:14.204Z,38.59
2023-03-30T13:44:26.518Z,38.50
2023-03-30T13:45:45.038Z,38.45
2023-03-30T13:46:50.985Z,39.06
2023-03-30T13:48:12.033Z,38.73
2023-03-30T13:49:17.999Z,39.02
2023-03-30T13:50:25.600Z,39.21
2023-03-30T13:51:29.221Z,39.60
2023-03-30T13:53:50.185Z,40.02
2023-03-30T13:54:52.590Z,39.17
2023-03-30T13:55:56.172Z,39.24
2023-03-30T13:57:10.834Z,38.72
2023-03-30T13:58:22.749Z,37.84
2023-03-30T13:59:28.519Z,37.64
2023-03-30T14:00:41.556Z,36.99
2023-03-30T14:01:56.257Z,37.89
2023-03-30T14:03:01.319Z,38.47
2023-03-30T14:04:04.257Z,39.00
2023-03-30T14:05:21.718Z,39.07
2023-03-30T14:06:26.795Z,39.37
2023-03-30T14:07:28.872Z,39.21
2023-03-30T14:08:34.673Z,38.87
2023-03-30T14:09:37.426Z,38.32
2023-03-30T14:10:39.823Z,38.41
2023-03-30T14:12:57.030Z,39.08
2023-03-30T14:14:02.480Z,38.53
2023-03-30T14:16:29.626Z,39.00
2023-03-30T14:17:32.204Z,38.37
2023-03-30T14:18:35.428Z,38.56
2023-03-30T14:19:41.758Z,38.80
2023-03-30T14:20:50.313Z,38.76
2023-03-30T14:23:33.408Z,39.15
2023-03-30T14:24:36.155Z,39.56
2023-03-30T14:25:39.536Z,40.44
2023-03-30T14:26:42.977Z,39.39
2023-03-30T14:27:46.404Z,39.24
2023-03-30T14:28:50.543Z,39.95
2023-03-30T14:29:52.766Z,38.84
2023-03-30T14:32:14.855Z,39.15
2023-03-30T14:33:18.419Z,38.95
2023-03-30T14:35:39.704Z,40.46
2023-03-30T14:36:44.822Z,40.81
2023-03-30T14:37:52.190Z,40.33
2023-03-30T14:38:53.665Z,39.56
2023-03-30T14:39:57.249Z,40.05
2023-03-30T14:40:59.896Z,39.04
2023-03-30T14:43:26.844Z,39.66
2023-03-30T14:44:29.364Z,40.01
2023-03-30T14:45:32.936Z,40.23
2023-03-30T14:46:41.347Z,40.06
2023-03-30T14:47:46.211Z,40.08
2023-03-30T14:48:50.667Z,39.95
2023-03-30T14:49:56.810Z,39.75
2023-03-30T14:51:01.514Z,39.96
2023-03-30T14:52:09.740Z,39.84
2023-03-30T14:53:12.493Z,39.55
2023-03-30T14:54:21.545Z,39.47
2023-03-30T14:55:25.909Z,38.99
2023-03-30T14:56:29.591Z,39.23
2023-03-30T14:57:35.037Z,39.85
2023-03-30T14:58:38.496Z,39.81
2023-03-30T14:59:56.137Z,39.80
2023-03-30T15:01:02.506Z,39.70
2023-03-30T15:02:07.230Z,40.38
2023-03-30T15:03:19.654Z,40.15
2023-03-30T15:04:17.268Z,40.19
2023-03-30T15:05:23.275Z,40.16
2023-03-30T15:06:29.101Z,39.74
2023-03-30T15:07:31.787Z,39.82
2023-03-30T15:09:48.170Z,40.24
2023-03-30T15:12:03.994Z,39.36
2023-03-30T15:13:07.827Z,39.47
2023-03-30T15:14:16.737Z,39.96
2023-03-30T15:16:33.305Z,40.17
2023-03-30T15:17:38.559Z,40.54
2023-03-30T15:18:41.876Z,39.17
2023-03-30T15:19:46.425Z,39.98
2023-03-30T15:20:49.068Z,39.21
2023-03-30T15:21:54.528Z,39.06
2023-03-30T15:22:59.351Z,39.12
2023-03-30T15:25:17.437Z,38.95
2023-03-30T15:26:20.010Z,39.57
2023-03-30T15:27:23.547Z,39.13
2023-03-30T15:28:29.330Z,39.31
2023-03-30T15:29:33.085Z,39.79
2023-03-30T15:30:39.236Z,40.26
2023-03-30T15:31:43.494Z,40.54
2023-03-30T15:32:45.745Z,40.02
2023-03-30T15:33:54.229Z,39.83
2023-03-30T15:34:59.838Z,40.38
2023-03-30T15:36:14.120Z,39.79
2023-03-30T15:37:21.971Z,39.36
2023-03-30T15:39:45.231Z,39.80
2023-03-30T15:40:48.460Z,40.25
2023-03-30T15:42:03.202Z,39.79
2023-03-30T15:43:23.465Z,40.14
2023-03-30T15:44:26.674Z,40.64
2023-03-30T15:45:32.433Z,41.34
2023-03-30T15:46:36.312Z,40.75
2023-03-30T15:47:40.643Z,41.34
2023-03-30T15:48:46.205Z,41.18
2023-03-30T15:49:51.465Z,40.52
2023-03-30T15:50:57.192Z,40.46
2023-03-30T15:52:02.684Z,40.79
2023-03-30T15:53:04.890Z,40.99
2023-03-30T15:54:16.556Z,41.55
2023-03-30T15:56:38.035Z,42.37
2023-03-30T15:57:46.761Z,42.27
2023-03-30T15:58:50.564Z,42.25
2023-03-30T15:59:55.921Z,41.62
2023-03-30T16:00:58.165Z,41.72
2023-03-30T16:02:15.489Z,40.90
2023-03-30T16:04:31.830Z,41.42
2023-03-30T16:05:34.362Z,41.92
2023-03-30T16:06:36.540Z,42.18
2023-03-30T16:07:39.720Z,42.11
2023-03-30T16:08:42.034Z,41.91